sensor_id;sensor_type;location;lat;lon;timestamp;pressure;altitude;pressure_sealevel;temperature;humidity
14818;BME280;7500;57.698;11.986;2022-07-10T00:00:01;101513.34;;;18.38;100.00
14818;BME280;7500;57.698;11.986;2022-07-10T00:02:29;101513.47;;;18.36;100.00
14818;BME280;7500;57.698;11.986;2022-07-10T00:04:56;101515.53;;;18.33;100.00
14818;BME280;7500;57.698;11.986;2022-07-10T00:07:23;101519.91;;;18.34;100.00
14818;BME280;7500;57.698;11.986;2022-07-10T00:09:49;101515.28;;;18.36;100.00
14818;BME280;7500;57.698;11.986;2022-07-10T00:12:16;101513.34;;;18.38;100.00
14818;BME280;7500;57.698;11.986;2022-07-10T00:14:43;101513.59;;;18.35;100.00
14818;BME280;7500;57.698;11.986;2022-07-10T00:17:10;101514.56;;;18.34;100.00
14818;BME280;7500;57.698;11.986;2022-07-10T00:19:38;101512.31;;;18.28;100.00
14818;BME280;7500;57.698;11.986;2022-07-10T00:22:05;101506.50;;;18.21;100.00
14818;BME280;7500;57.698;11.986;2022-07-10T00:24:31;101509.09;;;18.23;100.00
14818;BME280;7500;57.698;11.986;2022-07-10T00:26:58;101508.13;;;18.12;100.00
14818;BME280;7500;57.698;11.986;2022-07-10T00:29:25;101510.06;;;18.10;100.00
14818;BME280;7500;57.698;11.986;2022-07-10T00:31:52;101508.22;;;18.10;100.00
14818;BME280;7500;57.698;11.986;2022-07-10T00:34:18;101506.41;;;18.11;100.00
14818;BME280;7500;57.698;11.986;2022-07-10T00:36:47;101506.84;;;18.05;100.00
14818;BME280;7500;57.698;11.986;2022-07-10T00:39:13;101508.44;;;18.07;100.00
14818;BME280;7500;57.698;11.986;2022-07-10T00:41:41;101503.31;;;18.04;100.00
14818;BME280;7500;57.698;11.986;2022-07-10T00:44:07;101511.56;;;18.01;100.00
14818;BME280;7500;57.698;11.986;2022-07-10T00:46:34;101502.78;;;17.99;100.00
14818;BME280;7500;57.698;11.986;2022-07-10T00:49:01;101513.91;;;17.93;100.00
14818;BME280;7500;57.698;11.986;2022-07-10T00:51:29;101509.94;;;17.86;100.00
14818;BME280;7500;57.698;11.986;2022-07-10T00:53:58;101516.38;;;17.84;100.00
14818;BME280;7500;57.698;11.986;2022-07-10T00:56:26;101510.69;;;17.88;100.00
14818;BME280;7500;57.698;11.986;2022-07-10T00:58:55;101510.47;;;17.91;100.00
14818;BME280;7500;57.698;11.986;2022-07-10T01:01:22;101510.28;;;17.94;100.00
14818;BME280;7500;57.698;11.986;2022-07-10T01:03:49;101517.88;;;18.00;100.00
14818;BME280;7500;57.698;11.986;2022-07-10T01:06:17;101519.66;;;18.00;100.00
14818;BME280;7500;57.698;11.986;2022-07-10T01:08:45;101515.41;;;17.97;100.00
14818;BME280;7500;57.698;11.986;2022-07-10T01:11:14;101517.00;;;18.00;100.00
14818;BME280;7500;57.698;11.986;2022-07-10T01:13:41;101513.25;;;18.02;100.00
14818;BME280;7500;57.698;11.986;2022-07-10T01:16:08;101510.56;;;18.02;100.00
14818;BME280;7500;57.698;11.986;2022-07-10T01:18:35;101517.88;;;18.00;100.00
14818;BME280;7500;57.698;11.986;2022-07-10T01:21:03;101505.75;;;17.95;100.00
14818;BME280;7500;57.698;11.986;2022-07-10T01:23:30;101513.47;;;17.99;100.00
14818;BME280;7500;57.698;11.986;2022-07-10T01:25:57;101519.88;;;17.97;100.00
14818;BME280;7500;57.698;11.986;2022-07-10T01:28:25;101515.19;;;18.00;100.00
14818;BME280;7500;57.698;11.986;2022-07-10T01:30:54;101503.84;;;17.97;100.00
14818;BME280;7500;57.698;11.986;2022-07-10T01:33:21;101513.16;;;18.04;100.00
14818;BME280;7500;57.698;11.986;2022-07-10T01:35:48;101520.28;;;18.03;100.00
14818;BME280;7500;57.698;11.986;2022-07-10T01:38:16;101516.66;;;18.04;100.00
14818;BME280;7500;57.698;11.986;2022-07-10T01:40:43;101530.47;;;18.11;100.00
14818;BME280;7500;57.698;11.986;2022-07-10T01:43:10;101538.59;;;18.09;100.00
14818;BME280;7500;57.698;11.986;2022-07-10T01:45:36;101535.91;;;18.09;100.00
14818;BME280;7500;57.698;11.986;2022-07-10T01:48:03;101536.78;;;18.10;100.00
14818;BME280;7500;57.698;11.986;2022-07-10T01:50:30;101534.63;;;18.02;100.00
14818;BME280;7500;57.698;11.986;2022-07-10T01:52:57;101527.88;;;17.97;100.00
14818;BME280;7500;57.698;11.986;2022-07-10T01:55:25;101532.50;;;17.95;100.00
14818;BME280;7500;57.698;11.986;2022-07-10T01:57:52;101541.03;;;18.00;100.00
14818;BME280;7500;57.698;11.986;2022-07-10T02:00:19;101537.19;;;17.91;100.00
14818;BME280;7500;57.698;11.986;2022-07-10T02:02:46;101535.06;;;17.84;100.00
14818;BME280;7500;57.698;11.986;2022-07-10T02:05:33;101547.13;;;17.89;100.00
14818;BME280;7500;57.698;11.986;2022-07-10T02:07:59;101539.97;;;17.90;100.00
14818;BME280;7500;57.698;11.986;2022-07-10T02:10:27;101540.72;;;17.92;100.00
14818;BME280;7500;57.698;11.986;2022-07-10T02:12:54;101535.63;;;18.01;100.00
14818;BME280;7500;57.698;11.986;2022-07-10T02:15:21;101537.41;;;18.01;100.00
14818;BME280;7500;57.698;11.986;2022-07-10T02:17:48;101536.56;;;18.00;100.00
14818;BME280;7500;57.698;11.986;2022-07-10T02:20:15;101526.50;;;17.91;100.00
14818;BME280;7500;57.698;11.986;2022-07-10T02:22:42;101543.84;;;17.98;100.00
14818;BME280;7500;57.698;11.986;2022-07-10T02:25:09;101545.44;;;18.01;100.00
14818;BME280;7500;57.698;11.986;2022-07-10T02:27:37;101548.22;;;17.99;100.00
14818;BME280;7500;57.698;11.986;2022-07-10T02:30:05;101552.59;;;18.00;100.00
14818;BME280;7500;57.698;11.986;2022-07-10T02:32:32;101553.88;;;17.95;100.00
14818;BME280;7500;57.698;11.986;2022-07-10T02:34:59;101551.31;;;17.93;100.00
14818;BME280;7500;57.698;11.986;2022-07-10T02:37:26;101544.03;;;17.95;100.00
14818;BME280;7500;57.698;11.986;2022-07-10T02:39:52;101551.09;;;17.96;100.00
14818;BME280;7500;57.698;11.986;2022-07-10T02:42:19;101553.56;;;17.99;100.00
14818;BME280;7500;57.698;11.986;2022-07-10T02:44:47;101553.44;;;18.01;100.00
14818;BME280;7500;57.698;11.986;2022-07-10T02:47:14;101557.28;;;17.97;100.00
14818;BME280;7500;57.698;11.986;2022-07-10T02:49:41;101557.19;;;17.98;100.00
14818;BME280;7500;57.698;11.986;2022-07-10T02:52:09;101560.72;;;17.99;100.00
14818;BME280;7500;57.698;11.986;2022-07-10T02:54:36;101561.44;;;17.88;100.00
14818;BME280;7500;57.698;11.986;2022-07-10T02:57:03;101571.59;;;17.83;100.00
14818;BME280;7500;57.698;11.986;2022-07-10T02:59:30;101565.81;;;17.77;100.00
14818;BME280;7500;57.698;11.986;2022-07-10T03:01:58;101569.09;;;17.68;100.00
14818;BME280;7500;57.698;11.986;2022-07-10T03:04:26;101578.81;;;17.56;100.00
14818;BME280;7500;57.698;11.986;2022-07-10T03:06:53;101576.34;;;17.53;100.00
14818;BME280;7500;57.698;11.986;2022-07-10T03:09:19;101568.31;;;17.53;100.00
14818;BME280;7500;57.698;11.986;2022-07-10T03:11:46;101559.44;;;17.53;100.00
14818;BME280;7500;57.698;11.986;2022-07-10T03:14:13;101568.31;;;17.53;100.00
14818;BME280;7500;57.698;11.986;2022-07-10T03:16:40;101576.41;;;17.52;100.00
14818;BME280;7500;57.698;11.986;2022-07-10T03:19:08;101575.97;;;17.45;100.00
14818;BME280;7500;57.698;11.986;2022-07-10T03:21:35;101575.34;;;17.42;100.00
14818;BME280;7500;57.698;11.986;2022-07-10T03:24:02;101576.94;;;17.44;100.00
14818;BME280;7500;57.698;11.986;2022-07-10T03:26:29;101580.03;;;17.51;100.00
14818;BME280;7500;57.698;11.986;2022-07-10T03:28:56;101586.06;;;17.54;100.00
14818;BME280;7500;57.698;11.986;2022-07-10T03:31:22;101578.44;;;17.48;100.00
14818;BME280;7500;57.698;11.986;2022-07-10T03:33:49;101577.25;;;17.40;100.00
14818;BME280;7500;57.698;11.986;2022-07-10T03:36:19;101582.69;;;17.38;100.00
14818;BME280;7500;57.698;11.986;2022-07-10T03:38:46;101579.84;;;17.27;100.00
14818;BME280;7500;57.698;11.986;2022-07-10T03:41:13;101594.03;;;17.28;100.00
14818;BME280;7500;57.698;11.986;2022-07-10T03:43:40;101594.91;;;17.28;100.00
14818;BME280;7500;57.698;11.986;2022-07-10T03:46:07;101591.13;;;17.32;100.00
14818;BME280;7500;57.698;11.986;2022-07-10T03:48:33;101572.25;;;17.21;100.00
14818;BME280;7500;57.698;11.986;2022-07-10T03:51:01;101604.72;;;17.28;100.00
14818;BME280;7500;57.698;11.986;2022-07-10T03:53:29;101603.59;;;17.18;100.00
14818;BME280;7500;57.698;11.986;2022-07-10T03:55:56;101599.13;;;17.18;100.00
14818;BME280;7500;57.698;11.986;2022-07-10T03:58:23;101605.97;;;17.22;100.00
14818;BME280;7500;57.698;11.986;2022-07-10T04:00:49;101614.81;;;17.23;100.00
14818;BME280;7500;57.698;11.986;2022-07-10T04:03:15;101609.03;;;17.16;100.00
14818;BME280;7500;57.698;11.986;2022-07-10T04:05:42;101612.09;;;17.10;100.00
14818;BME280;7500;57.698;11.986;2022-07-10T04:08:09;101619.34;;;17.08;100.00
14818;BME280;7500;57.698;11.986;2022-07-10T04:10:37;101614.81;;;16.97;100.00
14818;BME280;7500;57.698;11.986;2022-07-10T04:13:04;101616.03;;;17.05;100.00
14818;BME280;7500;57.698;11.986;2022-07-10T04:15:31;101624.88;;;17.05;100.00
14818;BME280;7500;57.698;11.986;2022-07-10T04:17:58;101615.34;;;17.01;100.00
14818;BME280;7500;57.698;11.986;2022-07-10T04:20:25;101609.25;;;16.99;100.00
14818;BME280;7500;57.698;11.986;2022-07-10T04:22:51;101615.47;;;17.00;100.00
14818;BME280;7500;57.698;11.986;2022-07-10T04:25:18;101604.28;;;17.07;100.00
14818;BME280;7500;57.698;11.986;2022-07-10T04:27:46;101608.88;;;17.05;100.00
14818;BME280;7500;57.698;11.986;2022-07-10T04:30:13;101624.22;;;17.16;100.00
14818;BME280;7500;57.698;11.986;2022-07-10T04:32:40;101620.56;;;17.17;100.00
14818;BME280;7500;57.698;11.986;2022-07-10T04:35:07;101622.50;;;17.15;100.00
14818;BME280;7500;57.698;11.986;2022-07-10T04:37:34;101625.88;;;17.17;100.00
14818;BME280;7500;57.698;11.986;2022-07-10T04:40:02;101597.84;;;16.98;100.00
14818;BME280;7500;57.698;11.986;2022-07-10T04:42:30;101631.34;;;17.15;100.00
14818;BME280;7500;57.698;11.986;2022-07-10T04:44:58;101635.03;;;17.27;100.00
14818;BME280;7500;57.698;11.986;2022-07-10T04:47:25;101642.78;;;17.31;100.00
14818;BME280;7500;57.698;11.986;2022-07-10T04:49:52;101643.78;;;17.29;100.00
14818;BME280;7500;57.698;11.986;2022-07-10T04:52:19;101645.69;;;17.27;100.00
14818;BME280;7500;57.698;11.986;2022-07-10T04:54:45;101638.09;;;17.21;100.00
14818;BME280;7500;57.698;11.986;2022-07-10T04:57:12;101645.91;;;17.24;100.00
14818;BME280;7500;57.698;11.986;2022-07-10T04:59:39;101655.06;;;17.20;100.00
14818;BME280;7500;57.698;11.986;2022-07-10T05:02:07;101656.97;;;17.18;100.00
14818;BME280;7500;57.698;11.986;2022-07-10T05:04:34;101653.56;;;17.16;100.00
14818;BME280;7500;57.698;11.986;2022-07-10T05:07:01;101657.84;;;17.18;100.00
14818;BME280;7500;57.698;11.986;2022-07-10T05:09:28;101657.44;;;17.24;100.00
14818;BME280;7500;57.698;11.986;2022-07-10T05:11:55;101660.84;;;17.40;100.00
14818;BME280;7500;57.698;11.986;2022-07-10T05:14:21;101662.28;;;17.46;100.00
14818;BME280;7500;57.698;11.986;2022-07-10T05:16:51;101663.34;;;17.70;100.00
14818;BME280;7500;57.698;11.986;2022-07-10T05:19:19;101654.88;;;18.02;100.00
14818;BME280;7500;57.698;11.986;2022-07-10T05:21:45;101651.34;;;18.40;100.00
14818;BME280;7500;57.698;11.986;2022-07-10T05:24:12;101644.81;;;18.69;100.00
14818;BME280;7500;57.698;11.986;2022-07-10T05:26:39;101638.16;;;19.00;100.00
14818;BME280;7500;57.698;11.986;2022-07-10T05:29:06;101655.19;;;18.74;100.00
14818;BME280;7500;57.698;11.986;2022-07-10T05:31:33;101647.06;;;18.63;100.00
14818;BME280;7500;57.698;11.986;2022-07-10T05:33:59;101646.00;;;19.26;100.00
14818;BME280;7500;57.698;11.986;2022-07-10T05:36:28;101652.38;;;20.30;100.00
14818;BME280;7500;57.698;11.986;2022-07-10T05:38:54;101649.72;;;21.92;100.00
14818;BME280;7500;57.698;11.986;2022-07-10T05:41:21;101631.50;;;23.66;100.00
14818;BME280;7500;57.698;11.986;2022-07-10T05:43:48;101628.91;;;24.95;100.00
14818;BME280;7500;57.698;11.986;2022-07-10T05:46:15;101622.06;;;25.01;100.00
14818;BME280;7500;57.698;11.986;2022-07-10T05:48:41;101632.44;;;24.69;100.00
14818;BME280;7500;57.698;11.986;2022-07-10T05:51:08;101632.59;;;24.67;100.00
14818;BME280;7500;57.698;11.986;2022-07-10T05:53:37;101638.91;;;24.85;100.00
14818;BME280;7500;57.698;11.986;2022-07-10T05:56:05;101637.44;;;24.54;100.00
14818;BME280;7500;57.698;11.986;2022-07-10T05:58:31;101638.66;;;24.05;100.00
14818;BME280;7500;57.698;11.986;2022-07-10T06:00:58;101645.28;;;24.38;100.00
14818;BME280;7500;57.698;11.986;2022-07-10T06:03:25;101637.50;;;24.26;100.00
14818;BME280;7500;57.698;11.986;2022-07-10T06:05:52;101641.91;;;23.21;100.00
14818;BME280;7500;57.698;11.986;2022-07-10T06:08:19;101650.75;;;22.32;100.00
14818;BME280;7500;57.698;11.986;2022-07-10T06:10:47;101644.31;;;21.72;100.00
14818;BME280;7500;57.698;11.986;2022-07-10T06:13:14;101640.16;;;21.04;100.00
14818;BME280;7500;57.698;11.986;2022-07-10T06:15:41;101652.56;;;20.61;100.00
14818;BME280;7500;57.698;11.986;2022-07-10T06:18:08;101655.19;;;20.28;100.00
14818;BME280;7500;57.698;11.986;2022-07-10T06:20:34;101649.41;;;20.11;100.00
14818;BME280;7500;57.698;11.986;2022-07-10T06:23:01;101658.19;;;19.89;100.00
14818;BME280;7500;57.698;11.986;2022-07-10T06:25:28;101664.06;;;19.71;100.00
14818;BME280;7500;57.698;11.986;2022-07-10T06:27:56;101657.91;;;19.58;100.00
14818;BME280;7500;57.698;11.986;2022-07-10T06:30:23;101653.78;;;19.41;100.00
14818;BME280;7500;57.698;11.986;2022-07-10T06:32:50;101660.69;;;19.33;100.00
14818;BME280;7500;57.698;11.986;2022-07-10T06:35:17;101667.22;;;19.29;100.00
14818;BME280;7500;57.698;11.986;2022-07-10T06:37:44;101651.59;;;19.23;100.00
14818;BME280;7500;57.698;11.986;2022-07-10T06:40:12;101659.22;;;19.17;100.00
14818;BME280;7500;57.698;11.986;2022-07-10T06:42:39;101657.91;;;19.10;100.00
14818;BME280;7500;57.698;11.986;2022-07-10T06:45:09;101663.19;;;18.99;100.00
14818;BME280;7500;57.698;11.986;2022-07-10T06:47:36;101656.34;;;18.95;100.00
14818;BME280;7500;57.698;11.986;2022-07-10T06:50:20;101665.97;;;18.97;100.00
14818;BME280;7500;57.698;11.986;2022-07-10T06:52:48;101660.44;;;18.88;100.00
14818;BME280;7500;57.698;11.986;2022-07-10T06:55:15;101662.13;;;18.89;100.00
14818;BME280;7500;57.698;11.986;2022-07-10T06:57:42;101660.44;;;18.88;100.00
14818;BME280;7500;57.698;11.986;2022-07-10T07:00:10;101653.38;;;18.87;100.00
14818;BME280;7500;57.698;11.986;2022-07-10T07:02:38;101656.03;;;18.87;100.00
14818;BME280;7500;57.698;11.986;2022-07-10T07:05:06;101665.38;;;18.81;100.00
14818;BME280;7500;57.698;11.986;2022-07-10T07:07:33;101666.63;;;18.76;100.00
14818;BME280;7500;57.698;11.986;2022-07-10T07:10:00;101656.69;;;18.78;100.00
14818;BME280;7500;57.698;11.986;2022-07-10T07:12:26;101662.69;;;18.81;100.00
14818;BME280;7500;57.698;11.986;2022-07-10T07:14:53;101668.88;;;18.82;100.00
14818;BME280;7500;57.698;11.986;2022-07-10T07:17:21;101661.00;;;18.68;100.00
14818;BME280;7500;57.698;11.986;2022-07-10T07:19:50;101667.06;;;18.70;100.00
14818;BME280;7500;57.698;11.986;2022-07-10T07:22:35;101672.53;;;18.68;100.00
14818;BME280;7500;57.698;11.986;2022-07-10T07:25:20;101680.22;;;18.73;100.00
14818;BME280;7500;57.698;11.986;2022-07-10T07:27:47;101676.91;;;18.82;100.00
14818;BME280;7500;57.698;11.986;2022-07-10T07:30:15;101677.56;;;18.85;100.00
14818;BME280;7500;57.698;11.986;2022-07-10T07:32:44;101650.78;;;18.73;100.00
14818;BME280;7500;57.698;11.986;2022-07-10T07:35:12;101673.06;;;18.86;100.00
14818;BME280;7500;57.698;11.986;2022-07-10T07:37:41;101680.97;;;18.87;100.00
14818;BME280;7500;57.698;11.986;2022-07-10T07:40:10;101678.41;;;18.86;100.00
14818;BME280;7500;57.698;11.986;2022-07-10T07:42:37;101648.25;;;18.71;100.00
14818;BME280;7500;57.698;11.986;2022-07-10T07:45:05;101681.09;;;18.86;100.00
14818;BME280;7500;57.698;11.986;2022-07-10T07:47:44;101671.97;;;18.88;100.00
14818;BME280;7500;57.698;11.986;2022-07-10T07:50:13;101691.16;;;18.95;100.00
14818;BME280;7500;57.698;11.986;2022-07-10T07:52:40;101684.41;;;19.02;100.00
14818;BME280;7500;57.698;11.986;2022-07-10T07:55:08;101688.66;;;19.04;100.00
14818;BME280;7500;57.698;11.986;2022-07-10T07:57:35;101688.66;;;19.04;100.00
14818;BME280;7500;57.698;11.986;2022-07-10T08:00:03;101675.09;;;18.95;100.00
14818;BME280;7500;57.698;11.986;2022-07-10T08:02:30;101671.22;;;18.99;100.00
14818;BME280;7500;57.698;11.986;2022-07-10T08:04:58;101673.44;;;19.05;100.00
14818;BME280;7500;57.698;11.986;2022-07-10T08:07:33;101682.00;;;19.10;100.00
14818;BME280;7500;57.698;11.986;2022-07-10T08:10:00;101680.09;;;19.12;100.00
14818;BME280;7500;57.698;11.986;2022-07-10T08:12:27;101669.84;;;19.18;100.00
14818;BME280;7500;57.698;11.986;2022-07-10T08:14:54;101671.31;;;19.22;100.00
14818;BME280;7500;57.698;11.986;2022-07-10T08:17:20;101687.38;;;19.35;100.00
14818;BME280;7500;57.698;11.986;2022-07-10T08:19:48;101685.44;;;19.37;100.00
14818;BME280;7500;57.698;11.986;2022-07-10T08:22:16;101684.69;;;19.35;100.00
14818;BME280;7500;57.698;11.986;2022-07-10T08:24:44;101683.38;;;19.40;100.00
14818;BME280;7500;57.698;11.986;2022-07-10T08:27:10;101685.69;;;19.44;100.00
14818;BME280;7500;57.698;11.986;2022-07-10T08:29:37;101689.88;;;19.48;100.00
14818;BME280;7500;57.698;11.986;2022-07-10T08:32:05;101692.34;;;19.51;100.00
14818;BME280;7500;57.698;11.986;2022-07-10T08:34:31;101681.53;;;19.53;100.00
14818;BME280;7500;57.698;11.986;2022-07-10T08:36:59;101687.38;;;19.58;100.00
14818;BME280;7500;57.698;11.986;2022-07-10T08:39:27;101694.34;;;19.60;100.00
14818;BME280;7500;57.698;11.986;2022-07-10T08:41:54;101694.28;;;19.73;100.00
14818;BME280;7500;57.698;11.986;2022-07-10T08:44:21;101692.53;;;19.84;100.00
14818;BME280;7500;57.698;11.986;2022-07-10T08:46:48;101686.69;;;19.90;100.00
14818;BME280;7500;57.698;11.986;2022-07-10T08:49:16;101690.75;;;19.96;100.00
14818;BME280;7500;57.698;11.986;2022-07-10T08:51:47;101691.28;;;20.01;100.00
14818;BME280;7500;57.698;11.986;2022-07-10T08:54:20;101690.31;;;20.02;100.00
14818;BME280;7500;57.698;11.986;2022-07-10T08:56:49;101688.59;;;20.01;100.00
14818;BME280;7500;57.698;11.986;2022-07-10T08:59:18;101694.13;;;20.10;100.00
14818;BME280;7500;57.698;11.986;2022-07-10T09:01:47;101696.47;;;20.15;100.00
14818;BME280;7500;57.698;11.986;2022-07-10T09:04:16;101702.28;;;20.32;100.00
14818;BME280;7500;57.698;11.986;2022-07-10T09:06:44;101696.63;;;20.24;100.00
14818;BME280;7500;57.698;11.986;2022-07-10T09:09:11;101703.81;;;20.24;100.00
14818;BME280;7500;57.698;11.986;2022-07-10T09:11:38;101691.25;;;20.24;100.00
14818;BME280;7500;57.698;11.986;2022-07-10T09:14:08;101698.72;;;20.32;100.00
14818;BME280;7500;57.698;11.986;2022-07-10T09:16:38;101703.44;;;20.73;100.00
14818;BME280;7500;57.698;11.986;2022-07-10T09:19:16;101700.84;;;21.17;100.00
14818;BME280;7500;57.698;11.986;2022-07-10T09:21:43;101697.47;;;22.11;100.00
14818;BME280;7500;57.698;11.986;2022-07-10T09:24:11;101690.75;;;21.63;100.00
14818;BME280;7500;57.698;11.986;2022-07-10T09:26:39;101693.84;;;21.15;100.00
14818;BME280;7500;57.698;11.986;2022-07-10T09:29:08;101699.34;;;20.91;100.00
14818;BME280;7500;57.698;11.986;2022-07-10T09:31:48;101702.16;;;20.90;100.00
14818;BME280;7500;57.698;11.986;2022-07-10T09:34:15;101697.63;;;20.90;100.00
14818;BME280;7500;57.698;11.986;2022-07-10T09:36:43;101697.41;;;20.82;100.00
14818;BME280;7500;57.698;11.986;2022-07-10T09:39:09;101697.41;;;20.82;100.00
14818;BME280;7500;57.698;11.986;2022-07-10T09:41:37;101699.09;;;20.94;100.00
14818;BME280;7500;57.698;11.986;2022-07-10T09:44:06;101698.75;;;20.99;100.00
14818;BME280;7500;57.698;11.986;2022-07-10T09:46:35;101696.19;;;20.97;100.00
14818;BME280;7500;57.698;11.986;2022-07-10T09:49:07;101703.63;;;20.94;100.00
14818;BME280;7500;57.698;11.986;2022-07-10T09:51:36;101692.03;;;20.93;100.00
14818;BME280;7500;57.698;11.986;2022-07-10T09:54:04;101707.28;;;21.15;100.00
14818;BME280;7500;57.698;11.986;2022-07-10T09:56:36;101673.63;;;21.00;100.00
14818;BME280;7500;57.698;11.986;2022-07-10T09:59:09;101696.94;;;21.21;100.00
14818;BME280;7500;57.698;11.986;2022-07-10T10:01:36;101688.59;;;21.35;100.00
14818;BME280;7500;57.698;11.986;2022-07-10T10:04:04;101698.38;;;21.36;100.00
14818;BME280;7500;57.698;11.986;2022-07-10T10:06:33;101687.75;;;21.35;100.00
14818;BME280;7500;57.698;11.986;2022-07-10T10:09:04;101692.88;;;21.38;100.00
14818;BME280;7500;57.698;11.986;2022-07-10T10:11:33;101698.72;;;21.43;100.00
14818;BME280;7500;57.698;11.986;2022-07-10T10:14:03;101688.94;;;21.53;100.00
14818;BME280;7500;57.698;11.986;2022-07-10T10:16:32;101696.38;;;21.71;98.64
14818;BME280;7500;57.698;11.986;2022-07-10T10:19:00;101685.22;;;21.75;93.65
14818;BME280;7500;57.698;11.986;2022-07-10T10:21:46;101687.69;;;21.57;89.90
14818;BME280;7500;57.698;11.986;2022-07-10T10:24:13;101697.78;;;21.22;90.07
14818;BME280;7500;57.698;11.986;2022-07-10T10:26:41;101693.00;;;21.36;91.09
14818;BME280;7500;57.698;11.986;2022-07-10T10:29:09;101699.44;;;21.45;90.51
14818;BME280;7500;57.698;11.986;2022-07-10T10:31:38;101699.94;;;21.61;91.93
14818;BME280;7500;57.698;11.986;2022-07-10T10:34:05;101691.34;;;21.77;87.96
14818;BME280;7500;57.698;11.986;2022-07-10T10:36:46;101686.25;;;21.74;83.25
14818;BME280;7500;57.698;11.986;2022-07-10T10:39:14;101691.19;;;21.90;89.33
14818;BME280;7500;57.698;11.986;2022-07-10T10:41:45;101685.03;;;21.99;84.43
14818;BME280;7500;57.698;11.986;2022-07-10T10:44:25;101687.53;;;21.91;81.62
14818;BME280;7500;57.698;11.986;2022-07-10T10:47:00;101692.44;;;21.86;81.21
14818;BME280;7500;57.698;11.986;2022-07-10T10:49:50;101689.41;;;21.58;83.57
14818;BME280;7500;57.698;11.986;2022-07-10T10:52:19;101685.75;;;21.48;89.28
14818;BME280;7500;57.698;11.986;2022-07-10T10:55:07;101687.34;;;21.50;100.00
14818;BME280;7500;57.698;11.986;2022-07-10T10:57:38;101689.91;;;21.73;100.00
14818;BME280;7500;57.698;11.986;2022-07-10T11:00:12;101687.16;;;21.84;100.00
14818;BME280;7500;57.698;11.986;2022-07-10T11:02:41;101693.19;;;21.66;100.00
14818;BME280;7500;57.698;11.986;2022-07-10T11:05:39;101689.28;;;21.70;100.00
14818;BME280;7500;57.698;11.986;2022-07-10T11:08:09;101701.16;;;21.68;100.00
14818;BME280;7500;57.698;11.986;2022-07-10T11:10:38;101697.00;;;21.53;100.00
14818;BME280;7500;57.698;11.986;2022-07-10T11:13:06;101692.97;;;21.47;100.00
14818;BME280;7500;57.698;11.986;2022-07-10T11:15:35;101695.56;;;21.38;100.00
14818;BME280;7500;57.698;11.986;2022-07-10T11:18:05;101705.34;;;21.28;100.00
14818;BME280;7500;57.698;11.986;2022-07-10T11:20:33;101699.59;;;21.10;100.00
14818;BME280;7500;57.698;11.986;2022-07-10T11:25:59;101722.31;;;21.39;100.00
14818;BME280;7500;57.698;11.986;2022-07-10T11:28:49;101718.25;;;21.45;100.00
14818;BME280;7500;57.698;11.986;2022-07-10T11:31:17;101706.78;;;21.43;100.00
14818;BME280;7500;57.698;11.986;2022-07-10T11:33:47;101711.91;;;21.46;100.00
14818;BME280;7500;57.698;11.986;2022-07-10T11:36:16;101715.31;;;21.48;100.00
14818;BME280;7500;57.698;11.986;2022-07-10T11:38:44;101718.00;;;21.48;100.00
14818;BME280;7500;57.698;11.986;2022-07-10T11:41:16;101721.06;;;21.32;100.00
14818;BME280;7500;57.698;11.986;2022-07-10T11:43:47;101727.06;;;21.25;100.00
14818;BME280;7500;57.698;11.986;2022-07-10T11:46:14;101731.22;;;21.40;100.00
14818;BME280;7500;57.698;11.986;2022-07-10T11:48:42;101723.50;;;21.57;100.00
14818;BME280;7500;57.698;11.986;2022-07-10T11:51:21;101725.69;;;23.09;100.00
14818;BME280;7500;57.698;11.986;2022-07-10T11:53:57;101708.19;;;23.33;100.00
14818;BME280;7500;57.698;11.986;2022-07-10T11:56:25;101720.41;;;22.87;100.00
14818;BME280;7500;57.698;11.986;2022-07-10T11:58:59;101722.41;;;22.65;100.00
14818;BME280;7500;57.698;11.986;2022-07-10T12:01:27;101721.50;;;22.55;100.00
14818;BME280;7500;57.698;11.986;2022-07-10T12:04:01;101724.72;;;22.49;100.00
14818;BME280;7500;57.698;11.986;2022-07-10T12:06:34;101735.94;;;22.22;100.00
14818;BME280;7500;57.698;11.986;2022-07-10T12:09:02;101722.53;;;22.43;100.00
14818;BME280;7500;57.698;11.986;2022-07-10T12:11:29;101726.22;;;22.62;100.00
14818;BME280;7500;57.698;11.986;2022-07-10T12:14:09;101725.47;;;22.81;100.00
14818;BME280;7500;57.698;11.986;2022-07-10T12:16:36;101723.06;;;22.57;100.00
14818;BME280;7500;57.698;11.986;2022-07-10T12:19:03;101742.00;;;22.04;100.00
14818;BME280;7500;57.698;11.986;2022-07-10T12:21:32;101739.88;;;21.65;100.00
14818;BME280;7500;57.698;11.986;2022-07-10T12:23:59;101746.84;;;21.57;100.00
14818;BME280;7500;57.698;11.986;2022-07-10T12:26:32;101740.97;;;21.52;100.00
14818;BME280;7500;57.698;11.986;2022-07-10T12:29:00;101749.66;;;21.55;100.00
14818;BME280;7500;57.698;11.986;2022-07-10T12:31:28;101745.09;;;21.77;100.00
14818;BME280;7500;57.698;11.986;2022-07-10T12:33:59;101742.16;;;21.80;100.00
14818;BME280;7500;57.698;11.986;2022-07-10T12:36:41;101738.78;;;21.68;100.00
14818;BME280;7500;57.698;11.986;2022-07-10T12:39:09;101740.13;;;21.62;100.00
14818;BME280;7500;57.698;11.986;2022-07-10T12:41:54;101741.31;;;21.91;100.00
14818;BME280;7500;57.698;11.986;2022-07-10T12:44:38;101726.50;;;21.96;100.00
14818;BME280;7500;57.698;11.986;2022-07-10T12:47:07;101743.69;;;22.05;100.00
14818;BME280;7500;57.698;11.986;2022-07-10T12:49:50;101748.53;;;21.79;100.00